sensor_id;sensor_type;location;lat;lon;timestamp;P1;durP1;ratioP1;P2;durP2;ratioP2
69310;SDS011;56430;48.154;16.458;2023-06-24T00:00:18;2.25;;;0.30;;
69310;SDS011;56430;48.154;16.458;2023-06-24T00:02:45;1.27;;;0.30;;
69310;SDS011;56430;48.154;16.458;2023-06-24T00:05:11;1.15;;;0.20;;
69310;SDS011;56430;48.154;16.458;2023-06-24T00:07:38;1.50;;;0.20;;
69310;SDS011;56430;48.154;16.458;2023-06-24T00:10:10;1.10;;;0.20;;
69310;SDS011;56430;48.154;16.458;2023-06-24T00:12:38;1.98;;;0.20;;
69310;SDS011;56430;48.154;16.458;2023-06-24T00:15:07;1.90;;;0.40;;
69310;SDS011;56430;48.154;16.458;2023-06-24T00:17:34;1.23;;;0.20;;
69310;SDS011;56430;48.154;16.458;2023-06-24T00:20:01;2.53;;;0.20;;
69310;SDS011;56430;48.154;16.458;2023-06-24T00:25:36;1.30;;;0.20;;
69310;SDS011;56430;48.154;16.458;2023-06-24T00:28:04;1.40;;;0.20;;
69310;SDS011;56430;48.154;16.458;2023-06-24T00:30:31;2.20;;;0.20;;
69310;SDS011;56430;48.154;16.458;2023-06-24T00:32:57;1.73;;;0.20;;
69310;SDS011;56430;48.154;16.458;2023-06-24T00:35:24;1.20;;;0.10;;
69310;SDS011;56430;48.154;16.458;2023-06-24T00:37:51;1.00;;;0.20;;
69310;SDS011;56430;48.154;16.458;2023-06-24T00:40:23;1.63;;;0.30;;
69310;SDS011;56430;48.154;16.458;2023-06-24T00:42:50;1.70;;;0.20;;
69310;SDS011;56430;48.154;16.458;2023-06-24T00:45:18;1.23;;;0.13;;
69310;SDS011;56430;48.154;16.458;2023-06-24T00:47:46;1.77;;;0.40;;
69310;SDS011;56430;48.154;16.458;2023-06-24T00:50:13;1.20;;;0.20;;
69310;SDS011;56430;48.154;16.458;2023-06-24T00:52:41;0.98;;;0.17;;
69310;SDS011;56430;48.154;16.458;2023-06-24T00:55:08;3.20;;;0.40;;
69310;SDS011;56430;48.154;16.458;2023-06-24T00:57:37;2.00;;;0.13;;
69310;SDS011;56430;48.154;16.458;2023-06-24T01:00:05;1.73;;;0.30;;
69310;SDS011;56430;48.154;16.458;2023-06-24T01:02:36;1.40;;;0.30;;
69310;SDS011;56430;48.154;16.458;2023-06-24T01:05:03;1.95;;;0.30;;
69310;SDS011;56430;48.154;16.458;2023-06-24T01:07:31;1.27;;;0.20;;
69310;SDS011;56430;48.154;16.458;2023-06-24T01:09:58;2.17;;;0.40;;
69310;SDS011;56430;48.154;16.458;2023-06-24T01:12:25;1.55;;;0.25;;
69310;SDS011;56430;48.154;16.458;2023-06-24T01:14:52;1.08;;;0.20;;
69310;SDS011;56430;48.154;16.458;2023-06-24T01:17:21;4.85;;;0.20;;
69310;SDS011;56430;48.154;16.458;2023-06-24T01:19:54;1.40;;;0.30;;
69310;SDS011;56430;48.154;16.458;2023-06-24T01:22:32;1.70;;;0.20;;
69310;SDS011;56430;48.154;16.458;2023-06-24T01:25:08;1.63;;;0.30;;
69310;SDS011;56430;48.154;16.458;2023-06-24T01:27:52;1.60;;;0.30;;
69310;SDS011;56430;48.154;16.458;2023-06-24T01:30:32;1.27;;;0.25;;
69310;SDS011;56430;48.154;16.458;2023-06-24T01:33:03;2.08;;;0.32;;
69310;SDS011;56430;48.154;16.458;2023-06-24T01:35:31;1.80;;;0.40;;
69310;SDS011;56430;48.154;16.458;2023-06-24T01:37:59;1.40;;;0.30;;
69310;SDS011;56430;48.154;16.458;2023-06-24T01:40:29;2.20;;;0.40;;
69310;SDS011;56430;48.154;16.458;2023-06-24T01:42:58;1.95;;;0.55;;
69310;SDS011;56430;48.154;16.458;2023-06-24T01:45:26;1.85;;;0.47;;
69310;SDS011;56430;48.154;16.458;2023-06-24T01:47:54;2.70;;;0.30;;
69310;SDS011;56430;48.154;16.458;2023-06-24T01:50:23;2.13;;;0.50;;
69310;SDS011;56430;48.154;16.458;2023-06-24T01:52:52;1.70;;;0.30;;
69310;SDS011;56430;48.154;16.458;2023-06-24T01:55:20;2.13;;;0.50;;
69310;SDS011;56430;48.154;16.458;2023-06-24T01:57:48;1.90;;;0.50;;
69310;SDS011;56430;48.154;16.458;2023-06-24T02:00:15;1.90;;;0.40;;
69310;SDS011;56430;48.154;16.458;2023-06-24T02:02:43;2.10;;;0.52;;
69310;SDS011;56430;48.154;16.458;2023-06-24T02:05:11;2.00;;;0.47;;
69310;SDS011;56430;48.154;16.458;2023-06-24T02:07:39;2.10;;;0.45;;
69310;SDS011;56430;48.154;16.458;2023-06-24T02:10:08;2.70;;;0.60;;
69310;SDS011;56430;48.154;16.458;2023-06-24T02:12:35;1.60;;;0.30;;
69310;SDS011;56430;48.154;16.458;2023-06-24T02:15:04;2.22;;;0.57;;
69310;SDS011;56430;48.154;16.458;2023-06-24T02:17:32;2.88;;;0.50;;
69310;SDS011;56430;48.154;16.458;2023-06-24T02:19:59;2.33;;;0.50;;
69310;SDS011;56430;48.154;16.458;2023-06-24T02:22:27;2.85;;;0.50;;
69310;SDS011;56430;48.154;16.458;2023-06-24T02:24:55;1.80;;;0.50;;
69310;SDS011;56430;48.154;16.458;2023-06-24T02:30:23;2.00;;;0.57;;
69310;SDS011;56430;48.154;16.458;2023-06-24T02:32:51;1.50;;;0.30;;
69310;SDS011;56430;48.154;16.458;2023-06-24T02:35:18;2.13;;;0.50;;
69310;SDS011;56430;48.154;16.458;2023-06-24T02:37:44;1.30;;;0.30;;
69310;SDS011;56430;48.154;16.458;2023-06-24T02:40:13;3.20;;;0.35;;
69310;SDS011;56430;48.154;16.458;2023-06-24T02:42:40;2.10;;;0.40;;
69310;SDS011;56430;48.154;16.458;2023-06-24T02:45:07;2.00;;;0.50;;
69310;SDS011;56430;48.154;16.458;2023-06-24T02:47:34;2.28;;;0.60;;
69310;SDS011;56430;48.154;16.458;2023-06-24T02:50:02;1.77;;;0.43;;
69310;SDS011;56430;48.154;16.458;2023-06-24T02:52:29;1.90;;;0.43;;
69310;SDS011;56430;48.154;16.458;2023-06-24T02:54:57;1.80;;;0.40;;
69310;SDS011;56430;48.154;16.458;2023-06-24T02:57:26;1.92;;;0.32;;
69310;SDS011;56430;48.154;16.458;2023-06-24T02:59:53;4.68;;;0.43;;
69310;SDS011;56430;48.154;16.458;2023-06-24T03:02:20;1.13;;;0.20;;
69310;SDS011;56430;48.154;16.458;2023-06-24T03:04:47;1.70;;;0.47;;
69310;SDS011;56430;48.154;16.458;2023-06-24T03:07:15;2.00;;;0.30;;
69310;SDS011;56430;48.154;16.458;2023-06-24T03:09:46;1.30;;;0.30;;
69310;SDS011;56430;48.154;16.458;2023-06-24T03:12:12;2.15;;;0.40;;
69310;SDS011;56430;48.154;16.458;2023-06-24T03:14:41;2.13;;;0.40;;
69310;SDS011;56430;48.154;16.458;2023-06-24T03:17:07;1.75;;;0.40;;
69310;SDS011;56430;48.154;16.458;2023-06-24T03:19:34;1.42;;;0.32;;
69310;SDS011;56430;48.154;16.458;2023-06-24T03:22:02;2.53;;;0.50;;
69310;SDS011;56430;48.154;16.458;2023-06-24T03:24:29;2.08;;;0.50;;
69310;SDS011;56430;48.154;16.458;2023-06-24T03:26:56;1.50;;;0.30;;
69310;SDS011;56430;48.154;16.458;2023-06-24T03:29:23;1.83;;;0.60;;
69310;SDS011;56430;48.154;16.458;2023-06-24T03:31:51;1.55;;;0.30;;
69310;SDS011;56430;48.154;16.458;2023-06-24T03:34:18;3.25;;;0.50;;
69310;SDS011;56430;48.154;16.458;2023-06-24T03:36:45;2.25;;;0.50;;
69310;SDS011;56430;48.154;16.458;2023-06-24T03:39:11;1.67;;;0.40;;
69310;SDS011;56430;48.154;16.458;2023-06-24T03:41:38;3.22;;;0.40;;
69310;SDS011;56430;48.154;16.458;2023-06-24T03:44:05;1.95;;;0.47;;
69310;SDS011;56430;48.154;16.458;2023-06-24T03:46:32;1.60;;;0.43;;
69310;SDS011;56430;48.154;16.458;2023-06-24T03:49:00;1.50;;;0.30;;
69310;SDS011;56430;48.154;16.458;2023-06-24T03:51:27;1.77;;;0.30;;
69310;SDS011;56430;48.154;16.458;2023-06-24T03:53:54;1.30;;;0.20;;
69310;SDS011;56430;48.154;16.458;2023-06-24T03:56:20;1.20;;;0.20;;
69310;SDS011;56430;48.154;16.458;2023-06-24T03:58:47;1.08;;;0.20;;
69310;SDS011;56430;48.154;16.458;2023-06-24T04:01:14;1.35;;;0.30;;
69310;SDS011;56430;48.154;16.458;2023-06-24T04:03:44;1.40;;;0.27;;
69310;SDS011;56430;48.154;16.458;2023-06-24T04:06:12;1.10;;;0.20;;
69310;SDS011;56430;48.154;16.458;2023-06-24T04:08:39;1.17;;;0.20;;
69310;SDS011;56430;48.154;16.458;2023-06-24T04:11:09;1.05;;;0.20;;
69310;SDS011;56430;48.154;16.458;2023-06-24T04:13:37;1.38;;;0.20;;
69310;SDS011;56430;48.154;16.458;2023-06-24T04:16:04;1.03;;;0.13;;
69310;SDS011;56430;48.154;16.458;2023-06-24T04:18:30;0.85;;;0.13;;
69310;SDS011;56430;48.154;16.458;2023-06-24T04:20:57;1.00;;;0.20;;
69310;SDS011;56430;48.154;16.458;2023-06-24T04:23:26;0.95;;;0.17;;
69310;SDS011;56430;48.154;16.458;2023-06-24T04:25:52;0.65;;;0.10;;
69310;SDS011;56430;48.154;16.458;2023-06-24T04:28:19;1.07;;;0.10;;
69310;SDS011;56430;48.154;16.458;2023-06-24T04:30:46;0.90;;;0.10;;
69310;SDS011;56430;48.154;16.458;2023-06-24T04:33:13;1.02;;;0.20;;
69310;SDS011;56430;48.154;16.458;2023-06-24T04:35:40;1.48;;;0.10;;
69310;SDS011;56430;48.154;16.458;2023-06-24T04:38:06;1.95;;;0.10;;
69310;SDS011;56430;48.154;16.458;2023-06-24T04:40:35;0.83;;;0.10;;
69310;SDS011;56430;48.154;16.458;2023-06-24T04:43:01;0.80;;;0.10;;
69310;SDS011;56430;48.154;16.458;2023-06-24T04:45:28;1.85;;;0.10;;
69310;SDS011;56430;48.154;16.458;2023-06-24T04:47:55;4.93;;;0.20;;
69310;SDS011;56430;48.154;16.458;2023-06-24T04:50:22;1.00;;;0.10;;
69310;SDS011;56430;48.154;16.458;2023-06-24T04:52:51;0.67;;;0.10;;
69310;SDS011;56430;48.154;16.458;2023-06-24T04:55:18;1.88;;;0.10;;
69310;SDS011;56430;48.154;16.458;2023-06-24T04:57:47;1.95;;;0.10;;
69310;SDS011;56430;48.154;16.458;2023-06-24T05:00:14;1.08;;;0.15;;
69310;SDS011;56430;48.154;16.458;2023-06-24T05:02:41;0.88;;;0.10;;
69310;SDS011;56430;48.154;16.458;2023-06-24T05:05:08;0.77;;;0.10;;
69310;SDS011;56430;48.154;16.458;2023-06-24T05:07:35;0.68;;;0.00;;
69310;SDS011;56430;48.154;16.458;2023-06-24T05:10:02;0.90;;;0.10;;
69310;SDS011;56430;48.154;16.458;2023-06-24T05:12:29;0.73;;;0.08;;
69310;SDS011;56430;48.154;16.458;2023-06-24T05:14:57;1.10;;;0.10;;
69310;SDS011;56430;48.154;16.458;2023-06-24T05:17:23;0.97;;;0.10;;
69310;SDS011;56430;48.154;16.458;2023-06-24T05:19:50;0.70;;;0.10;;
69310;SDS011;56430;48.154;16.458;2023-06-24T05:22:17;0.50;;;0.03;;
69310;SDS011;56430;48.154;16.458;2023-06-24T05:24:44;0.68;;;0.10;;
69310;SDS011;56430;48.154;16.458;2023-06-24T05:27:11;0.70;;;0.10;;
69310;SDS011;56430;48.154;16.458;2023-06-24T05:29:38;0.90;;;0.10;;
69310;SDS011;56430;48.154;16.458;2023-06-24T05:32:06;0.38;;;0.00;;
69310;SDS011;56430;48.154;16.458;2023-06-24T05:34:33;0.50;;;0.00;;
69310;SDS011;56430;48.154;16.458;2023-06-24T05:37:00;0.80;;;0.10;;
69310;SDS011;56430;48.154;16.458;2023-06-24T05:39:27;0.90;;;0.20;;
69310;SDS011;56430;48.154;16.458;2023-06-24T05:41:54;0.77;;;0.10;;
69310;SDS011;56430;48.154;16.458;2023-06-24T05:44:21;0.77;;;0.10;;
69310;SDS011;56430;48.154;16.458;2023-06-24T05:46:48;2.15;;;0.10;;
69310;SDS011;56430;48.154;16.458;2023-06-24T05:49:16;1.05;;;0.10;;
69310;SDS011;56430;48.154;16.458;2023-06-24T05:51:43;0.60;;;0.00;;
69310;SDS011;56430;48.154;16.458;2023-06-24T05:54:10;0.77;;;0.13;;
69310;SDS011;56430;48.154;16.458;2023-06-24T05:56:37;0.65;;;0.00;;
69310;SDS011;56430;48.154;16.458;2023-06-24T05:59:04;0.60;;;0.10;;
69310;SDS011;56430;48.154;16.458;2023-06-24T06:01:31;1.00;;;0.20;;
69310;SDS011;56430;48.154;16.458;2023-06-24T06:03:57;1.10;;;0.10;;
69310;SDS011;56430;48.154;16.458;2023-06-24T06:06:26;0.60;;;0.10;;
69310;SDS011;56430;48.154;16.458;2023-06-24T06:08:52;0.93;;;0.10;;
69310;SDS011;56430;48.154;16.458;2023-06-24T06:11:19;1.80;;;0.10;;
69310;SDS011;56430;48.154;16.458;2023-06-24T06:13:46;0.73;;;0.10;;
69310;SDS011;56430;48.154;16.458;2023-06-24T06:16:13;0.45;;;0.03;;
69310;SDS011;56430;48.154;16.458;2023-06-24T06:18:40;0.43;;;0.00;;
69310;SDS011;56430;48.154;16.458;2023-06-24T06:21:06;1.05;;;0.10;;
69310;SDS011;56430;48.154;16.458;2023-06-24T06:23:35;0.55;;;0.10;;
69310;SDS011;56430;48.154;16.458;2023-06-24T06:26:01;0.70;;;0.05;;
69310;SDS011;56430;48.154;16.458;2023-06-24T06:28:28;0.52;;;0.03;;
69310;SDS011;56430;48.154;16.458;2023-06-24T06:30:55;0.60;;;0.07;;
69310;SDS011;56430;48.154;16.458;2023-06-24T06:33:23;0.80;;;0.10;;
69310;SDS011;56430;48.154;16.458;2023-06-24T06:35:50;0.93;;;0.10;;
69310;SDS011;56430;48.154;16.458;2023-06-24T06:38:16;0.70;;;0.10;;
69310;SDS011;56430;48.154;16.458;2023-06-24T06:40:44;0.35;;;0.00;;
69310;SDS011;56430;48.154;16.458;2023-06-24T06:43:11;0.60;;;0.00;;
69310;SDS011;56430;48.154;16.458;2023-06-24T06:45:38;0.40;;;0.00;;
69310;SDS011;56430;48.154;16.458;2023-06-24T06:48:05;0.50;;;0.00;;
69310;SDS011;56430;48.154;16.458;2023-06-24T06:50:33;0.40;;;0.00;;
69310;SDS011;56430;48.154;16.458;2023-06-24T06:53:00;0.60;;;0.03;;
69310;SDS011;56430;48.154;16.458;2023-06-24T06:55:27;0.53;;;0.00;;
69310;SDS011;56430;48.154;16.458;2023-06-24T06:57:55;0.70;;;0.10;;
69310;SDS011;56430;48.154;16.458;2023-06-24T07:00:22;0.60;;;0.10;;
69310;SDS011;56430;48.154;16.458;2023-06-24T07:02:49;0.50;;;0.00;;
69310;SDS011;56430;48.154;16.458;2023-06-24T07:05:16;1.15;;;0.10;;
69310;SDS011;56430;48.154;16.458;2023-06-24T07:07:43;0.60;;;0.00;;
69310;SDS011;56430;48.154;16.458;2023-06-24T07:10:10;0.90;;;0.10;;
69310;SDS011;56430;48.154;16.458;2023-06-24T07:12:37;1.15;;;0.20;;
69310;SDS011;56430;48.154;16.458;2023-06-24T07:15:06;1.10;;;0.20;;
69310;SDS011;56430;48.154;16.458;2023-06-24T07:17:33;1.42;;;0.20;;
69310;SDS011;56430;48.154;16.458;2023-06-24T07:20:00;0.63;;;0.10;;
69310;SDS011;56430;48.154;16.458;2023-06-24T07:22:27;1.40;;;0.20;;
69310;SDS011;56430;48.154;16.458;2023-06-24T07:24:56;1.10;;;0.15;;
69310;SDS011;56430;48.154;16.458;2023-06-24T07:27:22;1.20;;;0.20;;
69310;SDS011;56430;48.154;16.458;2023-06-24T07:29:49;1.02;;;0.10;;
69310;SDS011;56430;48.154;16.458;2023-06-24T07:32:17;1.40;;;0.13;;
69310;SDS011;56430;48.154;16.458;2023-06-24T07:34:44;1.67;;;0.30;;
69310;SDS011;56430;48.154;16.458;2023-06-24T07:37:11;1.40;;;0.20;;
69310;SDS011;56430;48.154;16.458;2023-06-24T07:39:38;1.02;;;0.10;;
69310;SDS011;56430;48.154;16.458;2023-06-24T07:42:05;1.50;;;0.30;;
69310;SDS011;56430;48.154;16.458;2023-06-24T07:44:32;1.10;;;0.20;;
69310;SDS011;56430;48.154;16.458;2023-06-24T07:46:58;1.30;;;0.30;;
69310;SDS011;56430;48.154;16.458;2023-06-24T07:49:27;1.10;;;0.20;;
69310;SDS011;56430;48.154;16.458;2023-06-24T07:51:53;1.40;;;0.20;;
69310;SDS011;56430;48.154;16.458;2023-06-24T07:54:20;1.98;;;0.30;;
69310;SDS011;56430;48.154;16.458;2023-06-24T07:56:47;1.40;;;0.30;;
69310;SDS011;56430;48.154;16.458;2023-06-24T07:59:14;2.00;;;0.28;;
69310;SDS011;56430;48.154;16.458;2023-06-24T08:01:41;1.95;;;0.40;;
69310;SDS011;56430;48.154;16.458;2023-06-24T08:04:07;2.70;;;0.57;;
69310;SDS011;56430;48.154;16.458;2023-06-24T08:06:36;2.45;;;0.40;;
69310;SDS011;56430;48.154;16.458;2023-06-24T08:09:02;1.70;;;0.40;;
69310;SDS011;56430;48.154;16.458;2023-06-24T08:11:29;1.80;;;0.40;;
69310;SDS011;56430;48.154;16.458;2023-06-24T08:13:56;1.73;;;0.50;;
69310;SDS011;56430;48.154;16.458;2023-06-24T08:16:23;1.73;;;0.45;;
69310;SDS011;56430;48.154;16.458;2023-06-24T08:18:49;1.70;;;0.50;;
69310;SDS011;56430;48.154;16.458;2023-06-24T08:21:16;1.93;;;0.60;;
69310;SDS011;56430;48.154;16.458;2023-06-24T08:23:45;1.77;;;0.40;;
69310;SDS011;56430;48.154;16.458;2023-06-24T08:26:11;1.60;;;0.45;;
69310;SDS011;56430;48.154;16.458;2023-06-24T08:28:38;1.90;;;0.60;;
69310;SDS011;56430;48.154;16.458;2023-06-24T08:31:05;1.67;;;0.50;;
69310;SDS011;56430;48.154;16.458;2023-06-24T08:33:32;1.63;;;0.60;;
69310;SDS011;56430;48.154;16.458;2023-06-24T08:35:59;1.95;;;0.30;;
69310;SDS011;56430;48.154;16.458;2023-06-24T08:38:26;1.65;;;0.50;;
69310;SDS011;56430;48.154;16.458;2023-06-24T08:40:54;1.73;;;0.40;;
69310;SDS011;56430;48.154;16.458;2023-06-24T08:43:22;1.75;;;0.50;;
69310;SDS011;56430;48.154;16.458;2023-06-24T08:45:48;1.67;;;0.50;;
69310;SDS011;56430;48.154;16.458;2023-06-24T08:48:15;1.88;;;0.65;;
69310;SDS011;56430;48.154;16.458;2023-06-24T08:50:43;2.00;;;0.70;;
69310;SDS011;56430;48.154;16.458;2023-06-24T08:53:11;2.13;;;0.70;;
69310;SDS011;56430;48.154;16.458;2023-06-24T08:55:40;2.35;;;0.55;;
69310;SDS011;56430;48.154;16.458;2023-06-24T08:58:10;2.23;;;0.70;;
69310;SDS011;56430;48.154;16.458;2023-06-24T09:00:37;2.95;;;1.10;;
69310;SDS011;56430;48.154;16.458;2023-06-24T09:03:04;2.03;;;0.50;;
69310;SDS011;56430;48.154;16.458;2023-06-24T09:05:31;2.20;;;0.65;;
69310;SDS011;56430;48.154;16.458;2023-06-24T09:07:58;2.75;;;0.75;;
69310;SDS011;56430;48.154;16.458;2023-06-24T09:10:31;2.03;;;0.70;;
69310;SDS011;56430;48.154;16.458;2023-06-24T09:12:58;2.40;;;0.60;;
69310;SDS011;56430;48.154;16.458;2023-06-24T09:15:26;5.40;;;0.70;;
69310;SDS011;56430;48.154;16.458;2023-06-24T09:17:55;6.32;;;0.90;;
69310;SDS011;56430;48.154;16.458;2023-06-24T09:20:22;3.47;;;0.80;;
69310;SDS011;56430;48.154;16.458;2023-06-24T09:22:50;2.43;;;0.70;;
69310;SDS011;56430;48.154;16.458;2023-06-24T09:25:17;2.38;;;1.05;;
69310;SDS011;56430;48.154;16.458;2023-06-24T09:27:47;2.35;;;0.70;;
69310;SDS011;56430;48.154;16.458;2023-06-24T09:30:17;2.55;;;0.63;;
69310;SDS011;56430;48.154;16.458;2023-06-24T09:32:46;2.42;;;0.85;;
69310;SDS011;56430;48.154;16.458;2023-06-24T09:35:13;2.27;;;0.67;;
69310;SDS011;56430;48.154;16.458;2023-06-24T09:37:40;2.58;;;0.70;;
69310;SDS011;56430;48.154;16.458;2023-06-24T09:40:07;1.92;;;0.45;;
69310;SDS011;56430;48.154;16.458;2023-06-24T09:42:35;2.13;;;0.70;;
69310;SDS011;56430;48.154;16.458;2023-06-24T09:45:05;1.90;;;0.50;;
69310;SDS011;56430;48.154;16.458;2023-06-24T09:47:32;2.20;;;0.70;;
69310;SDS011;56430;48.154;16.458;2023-06-24T09:50:00;2.33;;;0.60;;
69310;SDS011;56430;48.154;16.458;2023-06-24T09:52:27;2.50;;;0.55;;
69310;SDS011;56430;48.154;16.458;2023-06-24T09:54:54;2.88;;;0.38;;
69310;SDS011;56430;48.154;16.458;2023-06-24T09:57:23;1.70;;;0.50;;
69310;SDS011;56430;48.154;16.458;2023-06-24T09:59:52;2.20;;;0.40;;
69310;SDS011;56430;48.154;16.458;2023-06-24T10:02:19;1.40;;;0.40;;
69310;SDS011;56430;48.154;16.458;2023-06-24T10:04:46;1.52;;;0.40;;
69310;SDS011;56430;48.154;16.458;2023-06-24T10:07:15;2.35;;;0.60;;
69310;SDS011;56430;48.154;16.458;2023-06-24T10:09:42;1.73;;;0.65;;
69310;SDS011;56430;48.154;16.458;2023-06-24T10:12:09;2.20;;;0.80;;
69310;SDS011;56430;48.154;16.458;2023-06-24T10:14:36;2.55;;;1.05;;
69310;SDS011;56430;48.154;16.458;2023-06-24T10:17:04;1.90;;;0.60;;
69310;SDS011;56430;48.154;16.458;2023-06-24T10:19:31;1.92;;;0.50;;
69310;SDS011;56430;48.154;16.458;2023-06-24T10:22:03;2.05;;;0.65;;
69310;SDS011;56430;48.154;16.458;2023-06-24T10:24:35;1.80;;;0.60;;
69310;SDS011;56430;48.154;16.458;2023-06-24T10:27:03;2.28;;;0.90;;
69310;SDS011;56430;48.154;16.458;2023-06-24T10:29:30;2.20;;;0.70;;
69310;SDS011;56430;48.154;16.458;2023-06-24T10:32:01;2.50;;;0.70;;
69310;SDS011;56430;48.154;16.458;2023-06-24T10:34:29;2.20;;;0.70;;
69310;SDS011;56430;48.154;16.458;2023-06-24T10:36:58;2.10;;;0.70;;
69310;SDS011;56430;48.154;16.458;2023-06-24T10:39:36;2.60;;;1.08;;
69310;SDS011;56430;48.154;16.458;2023-06-24T10:44:49;2.80;;;1.10;;
69310;SDS011;56430;48.154;16.458;2023-06-24T10:47:16;2.90;;;1.33;;
69310;SDS011;56430;48.154;16.458;2023-06-24T10:49:43;2.53;;;1.10;;
69310;SDS011;56430;48.154;16.458;2023-06-24T10:52:09;3.05;;;0.70;;
69310;SDS011;56430;48.154;16.458;2023-06-24T10:54:38;2.80;;;1.17;;
69310;SDS011;56430;48.154;16.458;2023-06-24T10:57:05;3.13;;;1.33;;
69310;SDS011;56430;48.154;16.458;2023-06-24T10:59:33;3.10;;;1.10;;
69310;SDS011;56430;48.154;16.458;2023-06-24T11:02:00;3.07;;;1.10;;
69310;SDS011;56430;48.154;16.458;2023-06-24T11:04:27;2.75;;;1.13;;
69310;SDS011;56430;48.154;16.458;2023-06-24T11:06:58;3.20;;;1.20;;
69310;SDS011;56430;48.154;16.458;2023-06-24T11:09:25;2.95;;;1.00;;
69310;SDS011;56430;48.154;16.458;2023-06-24T11:11:53;5.35;;;1.40;;
69310;SDS011;56430;48.154;16.458;2023-06-24T11:14:20;3.10;;;1.40;;
69310;SDS011;56430;48.154;16.458;2023-06-24T11:16:47;3.28;;;1.30;;
69310;SDS011;56430;48.154;16.458;2023-06-24T11:19:13;2.72;;;1.05;;
69310;SDS011;56430;48.154;16.458;2023-06-24T11:21:40;5.30;;;1.48;;
69310;SDS011;56430;48.154;16.458;2023-06-24T11:24:07;3.42;;;1.48;;
69310;SDS011;56430;48.154;16.458;2023-06-24T11:26:36;3.50;;;1.33;;
69310;SDS011;56430;48.154;16.458;2023-06-24T11:29:10;3.30;;;1.13;;
69310;SDS011;56430;48.154;16.458;2023-06-24T11:31:37;4.00;;;1.70;;
69310;SDS011;56430;48.154;16.458;2023-06-24T11:34:05;3.92;;;1.33;;
69310;SDS011;56430;48.154;16.458;2023-06-24T11:36:32;4.45;;;1.90;;
69310;SDS011;56430;48.154;16.458;2023-06-24T11:38:58;3.97;;;1.73;;
69310;SDS011;56430;48.154;16.458;2023-06-24T11:41:25;4.72;;;1.75;;
69310;SDS011;56430;48.154;16.458;2023-06-24T11:43:53;3.72;;;1.33;;
69310;SDS011;56430;48.154;16.458;2023-06-24T11:46:25;3.90;;;1.90;;
69310;SDS011;56430;48.154;16.458;2023-06-24T11:51:54;4.27;;;1.90;;
69310;SDS011;56430;48.154;16.458;2023-06-24T11:54:21;6.95;;;2.28;;
69310;SDS011;56430;48.154;16.458;2023-06-24T11:56:49;4.55;;;2.00;;
69310;SDS011;56430;48.154;16.458;2023-06-24T11:59:17;3.55;;;1.50;;
69310;SDS011;56430;48.154;16.458;2023-06-24T12:01:46;6.03;;;1.92;;
69310;SDS011;56430;48.154;16.458;2023-06-24T12:04:18;4.87;;;1.80;;
69310;SDS011;56430;48.154;16.458;2023-06-24T12:06:45;4.70;;;2.20;;
69310;SDS011;56430;48.154;16.458;2023-06-24T12:09:12;3.90;;;1.90;;
69310;SDS011;56430;48.154;16.458;2023-06-24T12:11:39;4.43;;;2.25;;
69310;SDS011;56430;48.154;16.458;2023-06-24T12:14:06;4.43;;;2.10;;
69310;SDS011;56430;48.154;16.458;2023-06-24T12:16:33;4.70;;;1.93;;
69310;SDS011;56430;48.154;16.458;2023-06-24T12:19:01;4.03;;;1.90;;
69310;SDS011;56430;48.154;16.458;2023-06-24T12:21:28;3.67;;;1.63;;
69310;SDS011;56430;48.154;16.458;2023-06-24T12:23:55;3.67;;;1.80;;
69310;SDS011;56430;48.154;16.458;2023-06-24T12:26:22;4.05;;;1.90;;
69310;SDS011;56430;48.154;16.458;2023-06-24T12:28:49;5.40;;;2.33;;
69310;SDS011;56430;48.154;16.458;2023-06-24T12:31:16;3.75;;;2.00;;
69310;SDS011;56430;48.154;16.458;2023-06-24T12:33:43;5.55;;;1.92;;
69310;SDS011;56430;48.154;16.458;2023-06-24T12:36:11;4.30;;;1.73;;
69310;SDS011;56430;48.154;16.458;2023-06-24T12:38:38;4.63;;;2.08;;
69310;SDS011;56430;48.154;16.458;2023-06-24T12:41:05;4.10;;;1.50;;
69310;SDS011;56430;48.154;16.458;2023-06-24T12:43:32;4.20;;;1.95;;
69310;SDS011;56430;48.154;16.458;2023-06-24T12:45:59;4.20;;;1.85;;
69310;SDS011;56430;48.154;16.458;2023-06-24T12:48:26;5.95;;;2.05;;
69310;SDS011;56430;48.154;16.458;2023-06-24T12:50:53;5.15;;;2.13;;
69310;SDS011;56430;48.154;16.458;2023-06-24T12:53:21;4.10;;;2.30;;
69310;SDS011;56430;48.154;16.458;2023-06-24T12:55:48;4.60;;;2.10;;
69310;SDS011;56430;48.154;16.458;2023-06-24T12:58:18;5.03;;;2.33;;
69310;SDS011;56430;48.154;16.458;2023-06-24T13:00:45;4.38;;;2.00;;
69310;SDS011;56430;48.154;16.458;2023-06-24T13:03:12;4.03;;;2.05;;
69310;SDS011;56430;48.154;16.458;2023-06-24T13:05:39;4.67;;;2.30;;
69310;SDS011;56430;48.154;16.458;2023-06-24T13:08:05;5.00;;;2.30;;
69310;SDS011;56430;48.154;16.458;2023-06-24T13:10:34;4.53;;;2.28;;
69310;SDS011;56430;48.154;16.458;2023-06-24T13:13:00;4.97;;;2.38;;
69310;SDS011;56430;48.154;16.458;2023-06-24T13:15:28;4.28;;;2.17;;
69310;SDS011;56430;48.154;16.458;2023-06-24T13:17:55;4.77;;;2.40;;
69310;SDS011;56430;48.154;16.458;2023-06-24T13:20:21;4.50;;;2.45;;
69310;SDS011;56430;48.154;16.458;2023-06-24T13:22:48;5.53;;;2.30;;
69310;SDS011;56430;48.154;16.458;2023-06-24T13:25:15;4.43;;;2.28;;
69310;SDS011;56430;48.154;16.458;2023-06-24T13:27:43;6.97;;;2.30;;
69310;SDS011;56430;48.154;16.458;2023-06-24T13:30:11;4.53;;;2.10;;
69310;SDS011;56430;48.154;16.458;2023-06-24T13:32:40;4.70;;;2.50;;
69310;SDS011;56430;48.154;16.458;2023-06-24T13:35:07;4.47;;;2.22;;
69310;SDS011;56430;48.154;16.458;2023-06-24T13:37:34;4.47;;;1.95;;
69310;SDS011;56430;48.154;16.458;2023-06-24T13:40:01;7.22;;;2.42;;
69310;SDS011;56430;48.154;16.458;2023-06-24T13:42:28;5.57;;;2.57;;
69310;SDS011;56430;48.154;16.458;2023-06-24T13:44:56;3.80;;;1.80;;
69310;SDS011;56430;48.154;16.458;2023-06-24T13:47:23;4.53;;;2.65;;
69310;SDS011;56430;48.154;16.458;2023-06-24T13:49:50;4.75;;;2.38;;
69310;SDS011;56430;48.154;16.458;2023-06-24T13:52:17;5.00;;;2.63;;
69310;SDS011;56430;48.154;16.458;2023-06-24T13:54:44;4.13;;;2.30;;
69310;SDS011;56430;48.154;16.458;2023-06-24T13:57:12;4.93;;;2.33;;
69310;SDS011;56430;48.154;16.458;2023-06-24T13:59:38;5.45;;;2.40;;
69310;SDS011;56430;48.154;16.458;2023-06-24T14:02:07;5.20;;;2.30;;
69310;SDS011;56430;48.154;16.458;2023-06-24T14:04:34;6.50;;;2.42;;
69310;SDS011;56430;48.154;16.458;2023-06-24T14:07:01;5.35;;;2.80;;
69310;SDS011;56430;48.154;16.458;2023-06-24T14:09:30;4.47;;;2.37;;
69310;SDS011;56430;48.154;16.458;2023-06-24T14:11:57;4.07;;;2.38;;
69310;SDS011;56430;48.154;16.458;2023-06-24T14:14:23;5.97;;;2.63;;
69310;SDS011;56430;48.154;16.458;2023-06-24T14:16:50;6.32;;;2.30;;
69310;SDS011;56430;48.154;16.458;2023-06-24T14:19:18;4.20;;;2.10;;
69310;SDS011;56430;48.154;16.458;2023-06-24T14:21:46;4.80;;;2.07;;
69310;SDS011;56430;48.154;16.458;2023-06-24T14:24:13;4.97;;;2.00;;
69310;SDS011;56430;48.154;16.458;2023-06-24T14:26:40;7.15;;;2.38;;
69310;SDS011;56430;48.154;16.458;2023-06-24T14:29:06;4.82;;;2.58;;
69310;SDS011;56430;48.154;16.458;2023-06-24T14:31:33;4.45;;;2.20;;
69310;SDS011;56430;48.154;16.458;2023-06-24T14:34:00;4.40;;;2.28;;
69310;SDS011;56430;48.154;16.458;2023-06-24T14:36:28;6.47;;;2.40;;
69310;SDS011;56430;48.154;16.458;2023-06-24T14:38:55;4.00;;;1.80;;
69310;SDS011;56430;48.154;16.458;2023-06-24T14:41:22;4.65;;;2.45;;
69310;SDS011;56430;48.154;16.458;2023-06-24T14:43:48;6.60;;;2.10;;
69310;SDS011;56430;48.154;16.458;2023-06-24T14:46:15;4.80;;;2.20;;